Archival Weather

Václav Havel Intl Apt

Prague, Czechia (LKPR)

Report from: Friday, May 26, 2023 2:30 PM CEST
Current time: Sunday, July 14, 2024 12:01 PM CEST

Current weather – Weather history – Daily summaries
Weather forecast

Temperature18.0°C (64.4°F)
Dew point6.0°C (42.8°F)
Winds 6 kts (3.1 m/s, 6.9 mph) Vrb
Winds variableWinds variable from Northwest (320°) to North-Northeast (30°)
Visibility6.2 mi. (10 km)
Clouds Scattered clouds 4,900 ft. (1,494 m)
Altimeter30.27 in.Hg (1025 mB)
Relative humidity45 %
Density altitude95 ft. (29 m)
Remarks No significant changes expected in the next two hours
Flight conditions Visual Meteorological Conditions
Raw dataLKPR 261230Z 36006KT 320V030 9999 SCT049 18/06 Q1025 NOSIG
An error has occurred. This application may no longer respond until reloaded. Reload 🗙